Time;durP1;ratioP1;P1;durP2;ratioP2;P2;SDS_P1;SDS_P2;PMS_P1;PMS_P2;Temp;Humidity;BMP_temperature;BMP_pressure;BME280_temperature;BME280_humidity;BME280_pressure;Samples;Min_cycle;Max_cycle;Signal;HPM_P1;HPM_P2
2022/05/06 00:02:23;;;;;;;46.10;33.38;;;9.50;99.90;;;;;;5053000;28;20382;-65
2022/05/06 00:04:49;;;;;;;41.65;29.05;;;9.50;99.90;;;;;;5053747;28;20044;-65
2022/05/06 00:07:16;;;;;;;44.65;33.58;;;9.50;99.90;;;;;;5053497;28;20056;-65
2022/05/06 00:09:44;;;;;;;52.08;35.22;;;9.50;99.90;;;;;;5053342;28;20049;-65
2022/05/06 00:12:12;;;;;;;49.38;34.30;;;9.40;99.90;;;;;;5052807;28;20116;-65
2022/05/06 00:14:39;;;;;;;48.13;34.80;;;9.40;99.90;;;;;;5051282;28;20045;-65
2022/05/06 00:17:06;;;;;;;59.00;40.22;;;9.40;99.90;;;;;;5053629;28;20508;-65
2022/05/06 00:19:32;;;;;;;51.22;36.63;;;9.50;99.90;;;;;;5035718;28;20052;-65
2022/05/06 00:21:57;;;;;;;48.72;34.53;;;9.40;99.90;;;;;;5052776;28;20084;-65
2022/05/06 00:24:23;;;;;;;47.75;32.78;;;9.40;99.90;;;;;;5053736;28;20036;-65
2022/05/06 00:26:49;;;;;;;45.33;32.33;;;9.40;99.90;;;;;;5052510;28;20099;-65
2022/05/06 00:29:14;;;;;;;42.50;32.45;;;9.40;99.90;;;;;;5036086;28;20045;-65
2022/05/06 00:31:40;;;;;;;44.95;31.77;;;9.30;99.90;;;;;;5053145;28;20045;-65
2022/05/06 00:34:06;;;;;;;52.03;36.63;;;9.30;99.90;;;;;;5052974;28;20029;-65
2022/05/06 00:36:31;;;;;;;50.35;35.67;;;9.30;99.90;;;;;;5053218;28;20047;-65
2022/05/06 00:38:57;;;;;;;54.78;36.78;;;9.30;99.90;;;;;;5052010;28;20033;-65
2022/05/06 00:41:23;;;;;;;46.80;34.03;;;9.30;99.90;;;;;;5051588;28;20075;-65
2022/05/06 00:43:48;;;;;;;52.83;37.65;;;9.20;99.90;;;;;;5052876;28;20033;-65
2022/05/06 00:46:15;;;;;;;47.50;34.35;;;9.20;99.90;;;;;;5053536;28;20037;-65
2022/05/06 00:48:45;;;;;;;43.90;30.60;;;9.20;99.90;;;;;;5051955;28;20033;-65
2022/05/06 00:51:12;;;;;;;40.40;30.13;;;9.20;99.90;;;;;;5052093;28;20041;-65
2022/05/06 00:53:38;;;;;;;42.85;30.30;;;9.20;99.90;;;;;;5051530;28;20045;-65
2022/05/06 00:56:07;;;;;;;39.15;27.83;;;9.20;99.90;;;;;;5034681;28;20044;-65
2022/05/06 00:58:33;;;;;;;39.17;29.98;;;9.10;99.90;;;;;;5052704;28;20047;-65
2022/05/06 01:01:00;;;;;;;38.15;29.73;;;9.10;99.90;;;;;;5051776;28;20159;-65
2022/05/06 01:03:26;;;;;;;42.25;31.80;;;9.10;99.90;;;;;;5050588;28;20116;-65
2022/05/06 01:05:52;;;;;;;40.63;30.10;;;9.10;99.90;;;;;;5051344;28;20509;-65
2022/05/06 01:08:17;;;;;;;45.30;31.17;;;9.00;99.90;;;;;;5035050;28;20082;-65
2022/05/06 01:10:43;;;;;;;39.30;29.77;;;9.00;99.90;;;;;;5050272;28;20044;-65
2022/05/06 01:13:09;;;;;;;36.55;27.95;;;9.00;99.90;;;;;;5051415;28;20041;-65
2022/05/06 01:15:36;;;;;;;37.00;27.15;;;9.00;99.90;;;;;;5051230;28;20040;-65
2022/05/06 01:18:02;;;;;;;40.85;31.35;;;9.00;99.90;;;;;;5051782;28;20084;-65
2022/05/06 01:20:28;;;;;;;47.40;34.05;;;9.00;99.90;;;;;;5051260;28;20497;-65
2022/05/06 01:23:00;;;;;;;49.05;34.85;;;9.00;99.90;;;;;;5050945;28;20041;-65
2022/05/06 01:25:27;;;;;;;49.03;34.65;;;9.10;99.90;;;;;;5051464;28;20041;-65
2022/05/06 01:28:03;;;;;;;41.25;30.75;;;9.10;99.90;;;;;;5052241;28;20130;-65
2022/05/06 01:30:43;;;;;;;57.53;36.78;;;9.20;99.90;;;;;;5050438;28;20490;-65
2022/05/06 01:33:11;;;;;;;70.13;40.53;;;9.20;99.90;;;;;;5052417;28;20601;-65
2022/05/06 01:35:44;;;;;;;96.80;47.00;;;10.30;99.90;;;;;;5051779;28;20040;-65
2022/05/06 01:38:40;;;;;;;70.35;41.67;;;9.30;99.90;;;;;;5033648;28;20041;-66
2022/05/06 01:41:10;;;;;;;70.05;43.17;;;9.40;99.90;;;;;;5051906;28;20474;-66
2022/05/06 01:43:50;;;;;;;61.47;37.28;;;9.40;99.90;;;;;;5051778;28;20502;-66
2022/05/06 01:46:16;;;;;;;72.13;40.67;;;9.40;99.90;;;;;;5051637;28;20041;-65
2022/05/06 01:48:44;;;;;;;87.90;46.97;;;9.50;99.90;;;;;;5052130;28;20033;-65
2022/05/06 01:51:13;;;;;;;85.63;47.35;;;9.60;99.90;;;;;;5050214;28;20116;-65
2022/05/06 01:53:38;;;;;;;76.78;44.10;;;9.60;99.90;;;;;;5051866;28;20052;-65
2022/05/06 01:56:06;;;;;;;76.60;43.97;;;9.60;99.90;;;;;;5051144;28;20481;-65
2022/05/06 01:58:32;;;;;;;69.07;39.03;;;9.70;99.90;;;;;;5051236;28;20076;-65
2022/05/06 02:00:57;;;;;;;92.97;50.97;;;9.80;99.90;;;;;;5050633;28;20068;-65
2022/05/06 02:06:07;;;;;;;101.72;53.03;;;9.80;99.90;;;;;;5050199;28;20049;-65
2022/05/06 02:08:33;;;;;;;91.20;51.60;;;9.90;99.90;;;;;;5050855;28;20049;-65
2022/05/06 02:10:58;;;;;;;77.28;42.90;;;9.90;99.90;;;;;;5050438;28;20045;-65
2022/05/06 02:13:27;;;;;;;77.30;43.30;;;10.00;99.90;;;;;;5050031;28;20049;-65
2022/05/06 02:15:53;;;;;;;93.35;47.80;;;10.10;99.90;;;;;;5051340;28;20041;-66
2022/05/06 02:18:19;;;;;;;84.85;46.00;;;9.80;99.90;;;;;;5055965;28;20079;-66
2022/05/06 02:20:45;;;;;;;88.05;48.58;;;10.20;99.90;;;;;;5053986;28;20106;-66
2022/05/06 02:23:11;;;;;;;86.93;48.35;;;10.20;99.90;;;;;;5054865;28;20049;-66
2022/05/06 02:25:38;;;;;;;71.55;40.63;;;10.30;99.90;;;;;;5055473;28;20123;-66
2022/05/06 02:28:04;;;;;;;86.10;47.60;;;10.30;99.90;;;;;;5053804;28;20052;-66
2022/05/06 02:33:15;;;;;;;102.00;52.23;;;10.30;99.90;;;;;;5055773;28;20101;-65
2022/05/06 02:35:44;;;;;;;73.20;42.28;;;10.40;99.90;;;;;;5054586;28;20088;-65
2022/05/06 02:38:11;;;;;;;70.55;43.42;;;11.10;99.90;;;;;;5038305;28;20037;-65
2022/05/06 02:40:38;;;;;;;68.35;41.30;;;10.60;99.90;;;;;;5054253;28;20116;-65
2022/05/06 02:43:05;;;;;;;80.47;44.05;;;10.80;99.90;;;;;;5055926;28;20037;-65
2022/05/06 02:45:31;;;;;;;107.75;51.60;;;10.60;99.90;;;;;;5054058;28;20048;-65
2022/05/06 02:47:57;;;;;;;92.78;49.80;;;10.90;99.90;;;;;;5054482;28;20040;-65
2022/05/06 02:50:24;;;;;;;244.75;71.07;;;11.00;99.90;;;;;;5054421;28;20079;-65
2022/05/06 02:52:49;;;;;;;258.90;67.10;;;10.80;99.90;;;;;;5054920;28;20660;-65
2022/05/06 02:55:15;;;;;;;235.80;63.03;;;10.60;99.90;;;;;;5054591;28;20063;-65
2022/05/06 02:57:41;;;;;;;213.93;67.40;;;10.80;99.90;;;;;;5054970;28;20482;-65
2022/05/06 03:00:07;;;;;;;129.10;55.30;;;10.60;99.90;;;;;;5055498;28;20036;-65
2022/05/06 03:02:33;;;;;;;83.90;44.25;;;10.60;99.90;;;;;;5054099;28;20484;-66
2022/05/06 03:04:59;;;;;;;170.50;54.53;;;10.80;99.90;;;;;;5053843;28;20123;-66
2022/05/06 03:07:24;;;;;;;183.68;52.80;;;10.80;99.90;;;;;;5055297;28;20045;-66
2022/05/06 03:09:52;;;;;;;103.72;43.90;;;11.20;99.90;;;;;;5053877;28;20116;-66
2022/05/06 03:12:18;;;;;;;122.13;50.80;;;10.70;99.90;;;;;;5037308;28;20081;-66
2022/05/06 03:14:44;;;;;;;87.55;43.47;;;10.80;99.90;;;;;;5053437;28;20076;-65
2022/05/06 03:17:10;;;;;;;170.35;48.05;;;10.80;99.90;;;;;;5054089;28;20049;-65
2022/05/06 03:19:36;;;;;;;117.78;53.97;;;10.90;99.90;;;;;;5053143;28;20045;-65
2022/05/06 03:22:02;;;;;;;170.30;55.80;;;10.70;99.90;;;;;;5054817;28;20116;-65
2022/05/06 03:24:27;;;;;;;142.23;48.78;;;10.60;99.90;;;;;;5054055;28;20087;-65
2022/05/06 03:26:54;;;;;;;187.85;56.80;;;11.20;99.90;;;;;;5054150;28;20032;-65
2022/05/06 03:29:20;;;;;;;274.70;65.78;;;10.90;99.90;;;;;;5054770;28;20513;-65
2022/05/06 03:31:45;;;;;;;167.10;49.92;;;10.80;99.90;;;;;;5052229;28;20049;-65
2022/05/06 03:34:12;;;;;;;133.15;42.47;;;11.10;99.90;;;;;;5054720;28;20037;-65
2022/05/06 03:36:38;;;;;;;323.42;68.85;;;10.60;99.90;;;;;;5052109;28;20045;-65
2022/05/06 03:39:04;;;;;;;114.78;44.05;;;10.50;99.90;;;;;;5053422;28;20045;-65
2022/05/06 03:41:30;;;;;;;246.73;56.95;;;10.60;99.90;;;;;;5054561;28;20071;-65
2022/05/06 03:43:56;;;;;;;250.25;60.28;;;10.50;99.90;;;;;;5053624;28;20620;-65
2022/05/06 03:46:22;;;;;;;202.35;52.30;;;10.90;99.90;;;;;;5053132;28;20040;-65
2022/05/06 03:48:47;;;;;;;224.25;53.47;;;11.00;99.90;;;;;;5053975;28;20044;-65
2022/05/06 03:51:22;;;;;;;93.82;42.72;;;10.50;99.90;;;;;;5035889;28;20048;-65
2022/05/06 03:53:52;;;;;;;78.90;38.78;;;10.70;99.90;;;;;;5053950;28;20123;-65
2022/05/06 03:56:19;;;;;;;64.55;32.58;;;10.50;99.90;;;;;;5054357;28;20481;-65
2022/05/06 03:58:46;;;;;;;142.52;44.92;;;10.50;99.90;;;;;;5051625;28;20511;-65
2022/05/06 04:01:12;;;;;;;114.18;43.80;;;10.60;99.90;;;;;;5054421;28;20033;-66
2022/05/06 04:03:40;;;;;;;139.18;46.03;;;10.60;99.90;;;;;;5053861;28;20049;-65
2022/05/06 04:06:06;;;;;;;176.82;49.72;;;10.80;99.90;;;;;;5052199;28;20052;-65
2022/05/06 04:08:32;;;;;;;159.50;41.80;;;10.70;99.90;;;;;;5053897;28;20378;-66
2022/05/06 04:10:58;;;;;;;118.75;39.13;;;11.30;99.90;;;;;;5053908;28;20410;-66
2022/05/06 04:13:24;;;;;;;114.60;36.78;;;10.80;99.90;;;;;;5053184;28;20044;-66
2022/05/06 04:15:50;;;;;;;143.40;42.72;;;11.00;99.90;;;;;;5052523;28;20044;-65
2022/05/06 04:18:17;;;;;;;194.95;47.67;;;10.90;99.90;;;;;;5052463;28;20140;-65
2022/05/06 04:23:30;;;;;;;97.40;34.05;;;10.90;99.90;;;;;;5052559;28;20052;-65
2022/05/06 04:25:57;;;;;;;105.93;32.75;;;10.80;99.90;;;;;;5051918;28;20048;-65
2022/05/06 04:28:23;;;;;;;116.68;35.45;;;10.90;99.90;;;;;;5052398;28;20045;-65
2022/05/06 04:30:50;;;;;;;87.05;28.08;;;10.90;99.90;;;;;;5053135;28;20383;-65
2022/05/06 04:33:16;;;;;;;76.55;26.15;;;10.50;99.90;;;;;;5051787;28;20037;-65
2022/05/06 04:35:42;;;;;;;37.95;21.35;;;10.50;99.90;;;;;;5053211;28;20037;-65
2022/05/06 04:38:08;;;;;;;64.00;22.80;;;10.50;99.90;;;;;;5053231;28;20044;-65
2022/05/06 04:40:34;;;;;;;55.70;18.60;;;;;;;;;;5051264;28;20036;-65
2022/05/06 04:43:00;;;;;;;88.22;24.23;;;;;;;;;;5052283;28;20053;-65
2022/05/06 04:45:28;;;;;;;26.05;16.00;;;;;;;;;;5035386;28;20044;-65
2022/05/06 04:47:54;;;;;;;45.42;20.88;;;;;;;;;;5050765;28;20245;-65
2022/05/06 04:50:21;;;;;;;75.82;20.73;;;;;;;;;;5053554;28;20045;-65
2022/05/06 04:52:48;;;;;;;38.38;14.57;;;;;;;;;;5052701;28;20444;-65
2022/05/06 04:55:14;;;;;;;16.92;11.10;;;;;;;;;;5052283;28;20545;-65
2022/05/06 04:57:40;;;;;;;41.67;12.95;;;;;;;;;;5052510;28;20040;-65
2022/05/06 05:00:07;;;;;;;52.28;12.77;;;;;;;;;;5035168;28;20045;-65
2022/05/06 05:02:33;;;;;;;31.73;11.73;;;;;;;;;;5051907;28;20084;-65
2022/05/06 05:04:59;;;;;;;23.98;10.63;;;;;;;;;;5051462;28;20167;-65
2022/05/06 05:07:25;;;;;;;35.38;11.02;;;;;;;;;;5051781;28;20053;-65
2022/05/06 05:09:51;;;;;;;52.85;14.38;;;10.10;99.90;;;;;;5050788;28;20059;-65
2022/05/06 05:12:18;;;;;;;24.83;10.73;;;10.00;99.90;;;;;;5052712;28;20482;-65
2022/05/06 05:14:44;;;;;;;34.10;11.13;;;9.90;99.90;;;;;;5052170;28;20041;-65
2022/05/06 05:17:11;;;;;;;53.58;13.32;;;10.00;99.90;;;;;;5050734;28;20056;-65
2022/05/06 05:19:37;;;;;;;27.55;11.55;;;10.00;99.90;;;;;;5052367;28;20406;-65
2022/05/06 05:22:04;;;;;;;46.00;13.15;;;10.00;99.90;;;;;;5052864;28;20466;-65
2022/05/06 05:24:29;;;;;;;31.92;12.80;;;10.00;99.90;;;;;;5050781;28;20037;-65
2022/05/06 05:26:57;;;;;;;28.13;13.00;;;10.00;99.90;;;;;;5052108;28;20049;-65
2022/05/06 05:29:23;;;;;;;35.88;15.55;;;10.10;99.90;;;;;;5051766;28;20080;-65
2022/05/06 05:31:50;;;;;;;20.15;11.88;;;10.10;99.90;;;;;;5052132;28;20215;-65
2022/05/06 05:34:15;;;;;;;24.75;11.55;;;10.20;99.90;;;;;;5051455;28;20067;-65
2022/05/06 05:36:41;;;;;;;37.78;13.07;;;10.20;99.90;;;;;;5051323;28;20045;-65
2022/05/06 05:39:07;;;;;;;36.70;12.32;;;10.20;99.90;;;;;;5052652;28;20033;-65
2022/05/06 05:41:33;;;;;;;31.65;13.65;;;10.30;99.90;;;;;;5052069;28;20040;-65
2022/05/06 05:49:28;;;;;;;22.35;11.25;;;10.30;99.90;;;;;;5052197;28;20517;-65
2022/05/06 05:51:54;;;;;;;17.05;10.15;;;10.40;99.90;;;;;;5050293;28;20088;-65
2022/05/06 05:54:20;;;;;;;19.38;11.45;;;10.40;99.90;;;;;;5051306;28;20116;-65
2022/05/06 05:56:45;;;;;;;20.55;9.63;;;10.50;99.90;;;;;;5050403;28;20032;-65
2022/05/06 05:59:11;;;;;;;14.23;8.98;;;10.60;99.90;;;;;;5051617;28;20087;-65
2022/05/06 06:01:37;;;;;;;23.30;11.27;;;10.70;99.90;;;;;;5050383;28;20055;-65
2022/05/06 06:04:03;;;;;;;20.67;11.30;;;10.70;99.90;;;;;;5050999;28;20036;-65
2022/05/06 06:06:29;;;;;;;16.92;10.35;;;;;;;;;;5051483;28;20037;-65
2022/05/06 06:08:54;;;;;;;18.80;10.15;;;10.80;99.90;;;;;;5050441;28;20048;-65
2022/05/06 06:11:20;;;;;;;18.15;10.10;;;10.80;99.90;;;;;;5050243;28;20071;-65
2022/05/06 06:13:46;;;;;;;17.27;10.70;;;10.90;99.90;;;;;;5050588;28;20374;-65
2022/05/06 06:16:11;;;;;;;17.20;11.57;;;10.90;99.90;;;;;;5052168;28;20040;-65
2022/05/06 06:18:37;;;;;;;15.38;10.85;;;10.90;99.90;;;;;;5050630;28;20517;-65
2022/05/06 06:21:03;;;;;;;15.88;11.02;;;10.90;99.90;;;;;;5050833;28;20539;-65
2022/05/06 06:23:32;;;;;;;19.75;11.55;;;10.90;99.90;;;;;;5051856;28;20051;-64
2022/05/06 06:26:00;;;;;;;16.70;10.98;;;;;;;;;;5051069;28;20037;-65
2022/05/06 06:28:26;;;;;;;16.42;10.52;;;;;;;;;;5040963;28;20045;-65
2022/05/06 06:30:52;;;;;;;14.52;9.93;;;;;;;;;;5048704;28;20484;-65
2022/05/06 06:33:18;;;;;;;15.20;9.20;;;;;;;;;;5045366;28;20095;-65
2022/05/06 06:35:44;;;;;;;15.98;10.32;;;11.20;99.90;;;;;;5050107;28;20435;-64
2022/05/06 06:38:10;;;;;;;19.30;11.90;;;11.10;99.90;;;;;;5033210;28;20041;-64
2022/05/06 06:40:36;;;;;;;16.98;10.40;;;11.20;99.90;;;;;;5049001;28;20037;-64
2022/05/06 06:43:03;;;;;;;18.85;11.23;;;11.20;99.90;;;;;;5049246;28;20037;-64
2022/05/06 06:45:30;;;;;;;17.48;10.90;;;11.20;99.90;;;;;;5049628;28;20438;-64
2022/05/06 06:47:57;;;;;;;15.60;9.45;;;11.20;99.90;;;;;;5046397;28;20076;-65
2022/05/06 06:50:23;;;;;;;13.25;9.75;;;11.20;99.90;;;;;;5047992;28;20059;-65
2022/05/06 06:52:50;;;;;;;15.18;10.82;;;11.30;99.90;;;;;;5047334;28;20114;-65
2022/05/06 06:55:17;;;;;;;15.32;10.38;;;11.30;99.90;;;;;;5048209;28;20037;-65
2022/05/06 06:57:43;;;;;;;13.90;9.05;;;11.30;99.90;;;;;;5049054;28;20076;-65
2022/05/06 07:00:09;;;;;;;14.27;9.70;;;;;;;;;;5044627;28;20434;-65
2022/05/06 07:02:36;;;;;;;14.27;9.90;;;;;;;;;;5046020;28;20041;-65
2022/05/06 07:05:03;;;;;;;14.75;9.07;;;;;;;;;;5053232;28;20048;-65
2022/05/06 07:12:58;;;;;;;15.63;10.57;;;11.90;99.90;;;;;;5052760;28;20052;-65
2022/05/06 07:15:23;;;;;;;16.23;11.52;;;11.90;99.90;;;;;;5051021;28;20044;-65
2022/05/06 07:17:49;;;;;;;14.73;10.35;;;12.00;99.90;;;;;;5050706;28;20134;-65
2022/05/06 07:20:16;;;;;;;15.07;10.35;;;12.10;99.90;;;;;;5050983;28;20470;-65
2022/05/06 07:22:41;;;;;;;15.00;9.77;;;12.10;99.90;;;;;;5050856;28;20044;-65
2022/05/06 07:25:08;;;;;;;16.75;11.32;;;12.20;99.90;;;;;;5052577;28;20055;-65
2022/05/06 07:27:35;;;;;;;16.05;10.07;;;12.30;99.90;;;;;;5052369;28;20091;-65
2022/05/06 07:30:06;;;;;;;15.10;10.52;;;12.40;99.90;;;;;;5051983;28;20440;-65
2022/05/06 07:32:32;;;;;;;14.00;9.55;;;12.50;99.90;;;;;;5051806;28;20486;-65
2022/05/06 07:34:58;;;;;;;15.15;10.95;;;12.60;99.90;;;;;;5050205;28;20051;-65
2022/05/06 07:37:24;;;;;;;13.25;9.68;;;12.70;99.90;;;;;;5050048;28;20091;-65
2022/05/06 07:39:50;;;;;;;13.88;9.82;;;12.80;99.90;;;;;;5051370;28;20517;-65
2022/05/06 07:42:16;;;;;;;13.52;10.35;;;13.70;99.90;;;;;;5052132;28;20098;-65
2022/05/06 07:44:42;;;;;;;14.27;10.07;;;13.40;99.90;;;;;;5048498;28;20049;-66
2022/05/06 07:47:07;;;;;;;13.75;9.70;;;13.70;99.90;;;;;;5050587;28;20194;-66
2022/05/06 07:49:33;;;;;;;12.82;8.82;;;13.30;99.90;;;;;;5050724;28;20049;-66
2022/05/06 07:51:59;;;;;;;13.50;9.23;;;13.10;99.90;;;;;;5050167;28;20048;-65
2022/05/06 07:54:24;;;;;;;13.68;9.38;;;13.20;99.90;;;;;;5052028;28;20174;-65
2022/05/06 07:56:50;;;;;;;11.45;8.95;;;13.20;99.90;;;;;;5049975;28;20049;-65
2022/05/06 07:59:16;;;;;;;13.35;8.88;;;13.20;99.90;;;;;;5051894;28;20170;-65
2022/05/06 08:04:36;;;;;;;12.38;8.02;;;13.30;99.90;;;;;;5030219;28;20398;-65
2022/05/06 08:07:03;;;;;;;13.00;9.73;;;13.40;99.90;;;;;;5033161;28;20036;-65
2022/05/06 08:09:29;;;;;;;12.55;8.93;;;;;;;;;;5048446;28;20498;-66
2022/05/06 08:11:57;;;;;;;11.07;8.43;;;;;;;;;;5055142;28;20056;-66
2022/05/06 08:14:23;;;;;;;11.90;8.48;;;;;;;;;;5054015;28;20039;-65
2022/05/06 08:16:50;;;;;;;13.57;8.77;;;13.80;99.90;;;;;;5061161;28;20041;-65
2022/05/06 08:19:16;;;;;;;10.60;7.68;;;13.80;99.90;;;;;;5058383;28;20048;-65
2022/05/06 08:21:41;;;;;;;11.30;8.25;;;14.00;99.90;;;;;;5051147;28;20044;-65
2022/05/06 08:24:08;;;;;;;11.10;8.18;;;14.10;99.90;;;;;;5050962;28;20044;-65
2022/05/06 08:26:34;;;;;;;11.23;8.32;;;14.30;99.90;;;;;;5048385;28;20048;-65
2022/05/06 08:29:00;;;;;;;11.07;7.68;;;14.40;99.90;;;;;;5050614;28;20482;-65
2022/05/06 08:31:27;;;;;;;10.00;6.90;;;14.50;99.90;;;;;;5050474;28;20044;-65
2022/05/06 08:33:54;;;;;;;10.55;7.57;;;14.50;99.90;;;;;;5050342;28;20041;-65
2022/05/06 08:36:20;;;;;;;10.50;7.13;;;14.50;99.90;;;;;;5051518;28;20045;-64
2022/05/06 08:38:46;;;;;;;11.82;7.82;;;14.60;99.90;;;;;;5053354;28;20048;-67
2022/05/06 08:41:12;;;;;;;10.27;7.40;;;14.50;99.90;;;;;;5052830;28;20470;-64
2022/05/06 08:43:39;;;;;;;9.63;6.95;;;;;;;;;;5053045;28;20351;-66
2022/05/06 08:51:38;;;;;;;9.60;6.32;;;;;;;;;;5052768;28;20045;-67
2022/05/06 08:54:04;;;;;;;9.70;7.05;;;14.90;99.90;;;;;;5051158;28;20525;-67
2022/05/06 08:56:31;;;;;;;10.93;6.85;;;15.10;99.90;;;;;;5051487;28;20037;-67
2022/05/06 08:59:08;;;;;;;9.15;7.07;;;15.10;99.90;;;;;;5050979;28;20112;-66
2022/05/06 09:01:34;;;;;;;10.27;6.75;;;15.20;99.90;;;;;;5059748;28;20045;-66
2022/05/06 09:03:59;;;;;;;8.88;6.22;;;15.40;99.90;;;;;;5061318;28;20509;-66
2022/05/06 09:06:27;;;;;;;11.75;6.60;;;15.50;99.90;;;;;;5045843;28;20045;-66
2022/05/06 09:08:55;;;;;;;11.00;6.78;;;15.60;99.90;;;;;;5053546;28;20033;-66
2022/05/06 09:14:12;;;;;;;8.60;5.95;;;15.60;99.90;;;;;;5057934;28;20390;-66
2022/05/06 09:16:44;;;;;;;7.50;4.10;;;15.60;99.90;;;;;;5056803;28;20442;-66
2022/05/06 09:19:21;;;;;;;7.80;5.45;;;15.80;99.90;;;;;;5041998;28;20124;-66
2022/05/06 09:22:06;;;;;;;5.85;3.80;;;;;;;;;;5052167;28;20080;-66
2022/05/06 09:24:35;;;;;;;6.68;4.57;;;;;;;;;;5061265;28;20420;-66
2022/05/06 09:27:12;;;;;;;5.78;4.10;;;16.00;99.90;;;;;;5059205;28;20044;-67
2022/05/06 09:29:42;;;;;;;7.35;4.40;;;16.00;99.90;;;;;;5050906;28;20108;-66
2022/05/06 09:32:28;;;;;;;7.35;4.53;;;16.10;99.90;;;;;;5050990;28;20120;-63
2022/05/06 09:35:13;;;;;;;5.80;4.13;;;16.30;99.90;;;;;;5050785;28;20079;-62
2022/05/06 09:37:49;;;;;;;5.90;3.95;;;16.40;99.90;;;;;;5050460;28;20128;-64
2022/05/06 09:40:27;;;;;;;6.03;4.00;;;16.50;99.90;;;;;;5051218;28;20547;-64
2022/05/06 09:42:57;;;;;;;8.00;4.47;;;16.50;99.90;;;;;;5045108;28;20083;-61
2022/05/06 09:45:37;;;;;;;7.65;4.30;;;16.50;99.90;;;;;;5051320;28;20466;-61
2022/05/06 09:48:04;;;;;;;6.13;4.03;;;16.60;99.90;;;;;;5052041;28;20104;-64
2022/05/06 09:50:41;;;;;;;6.63;4.38;;;;;;;;;;5049745;28;20484;-63
2022/05/06 09:53:08;;;;;;;10.02;4.45;;;;;;;;;;5052377;28;20072;-64
2022/05/06 09:55:39;;;;;;;7.05;4.88;;;17.00;99.90;;;;;;5050715;28;20044;-64
2022/05/06 09:58:06;;;;;;;8.07;4.60;;;17.00;99.90;;;;;;5050036;28;20128;-64
2022/05/06 10:00:33;;;;;;;9.68;4.43;;;16.90;99.90;;;;;;5050550;28;20048;-63
2022/05/06 10:03:00;;;;;;;6.00;3.97;;;16.90;99.90;;;;;;5051795;28;20478;-64
2022/05/06 10:05:28;;;;;;;7.13;3.85;;;16.90;99.90;;;;;;5051139;28;20051;-62
2022/05/06 10:08:03;;;;;;;7.38;4.30;;;17.00;99.90;;;;;;5049852;28;20049;-63
2022/05/06 10:10:30;;;;;;;5.85;3.88;;;17.10;99.90;;;;;;5050166;28;20378;-62
2022/05/06 10:13:24;;;;;;;6.80;4.35;;;17.20;99.90;;;;;;5032858;28;20049;-63
2022/05/06 10:15:52;;;;;;;6.60;4.38;;;17.40;99.90;;;;;;5047686;28;20498;-63
2022/05/06 10:18:32;;;;;;;8.77;4.50;;;;;;;;;;5033654;28;20132;-64
2022/05/06 10:20:58;;;;;;;10.43;4.78;;;;;;;;;;5051404;28;20037;-64
2022/05/06 10:23:42;;;;;;;9.25;3.97;;;17.80;99.90;;;;;;5050566;28;20040;-64
2022/05/06 10:26:09;;;;;;;6.03;3.75;;;17.90;99.90;;;;;;5049372;28;20486;-64
2022/05/06 10:34:16;;;;;;;8.20;4.03;;;18.00;99.90;;;;;;5050079;28;20049;-63
2022/05/06 10:36:44;;;;;;;7.43;3.63;;;18.10;99.90;;;;;;5051244;28;20114;-64
2022/05/06 10:39:21;;;;;;;6.72;4.70;;;18.30;99.90;;;;;;5054842;28;20473;-63
2022/05/06 10:42:06;;;;;;;8.88;4.70;;;18.30;99.90;;;;;;5055475;28;20130;-64
2022/05/06 10:44:49;;;;;;;7.45;4.25;;;18.40;99.90;;;;;;5055327;28;20420;-64
2022/05/06 10:47:20;;;;;;;8.80;5.32;;;18.30;99.90;;;;;;5036672;28;20041;-63
2022/05/06 10:49:50;;;;;;;7.50;4.93;;;18.30;99.90;;;;;;5053209;28;20081;-63
2022/05/06 10:52:15;;;;;;;10.13;5.10;;;18.40;99.90;;;;;;5054756;28;20044;-64
2022/05/06 10:54:42;;;;;;;9.30;5.32;;;18.50;99.90;;;;;;5054144;28;20106;-64
2022/05/06 10:57:09;;;;;;;7.57;4.93;;;18.60;99.90;;;;;;5070896;28;20048;-64
2022/05/06 11:00:03;;;;;;;6.97;5.40;;;18.70;99.90;;;;;;5054458;28;20390;-64
2022/05/06 11:02:35;;;;;;;7.05;5.30;;;18.80;99.90;;;;;;5055164;28;20398;-64
2022/05/06 11:05:03;;;;;;;9.75;4.80;;;18.80;99.90;;;;;;5055255;28;20048;-63
2022/05/06 11:07:31;;;;;;;8.23;6.28;;;19.10;99.90;;;;;;5053501;28;20102;-64
2022/05/06 11:09:57;;;;;;;12.57;4.85;;;19.10;99.90;;;;;;5054868;28;20041;-62
2022/05/06 11:12:43;;;;;;;8.10;5.88;;;19.00;99.90;;;;;;5053387;28;20445;-64
2022/05/06 11:15:14;;;;;;;7.78;5.28;;;19.10;99.90;;;;;;5044908;28;20043;-64
2022/05/06 11:17:41;;;;;;;6.97;5.20;;;19.10;99.90;;;;;;5054448;28;20072;-64
2022/05/06 11:20:42;;;;;;;7.57;5.60;;;19.00;99.90;;;;;;5055069;28;20041;-64
2022/05/06 11:23:10;;;;;;;7.15;5.82;;;18.90;99.90;;;;;;5014983;28;20048;-64
2022/05/06 11:25:40;;;;;;;8.13;5.30;;;18.90;99.90;;;;;;5040256;28;20056;-64
2022/05/06 11:28:12;;;;;;;7.70;5.75;;;;;;;;;;5052600;28;20049;-64
2022/05/06 11:30:42;;;;;;;8.57;6.40;;;;;;;;;;5054123;28;20053;-64
2022/05/06 11:33:08;;;;;;;8.43;6.30;;;18.80;99.90;;;;;;5053314;28;20057;-64
2022/05/06 11:35:39;;;;;;;10.98;6.68;;;18.70;99.90;;;;;;5053406;28;20048;-64
2022/05/06 11:38:05;;;;;;;10.10;7.15;;;18.60;99.90;;;;;;5037515;28;20399;-63
2022/05/06 11:40:34;;;;;;;9.35;6.38;;;18.70;99.90;;;;;;5052807;28;20025;-64
2022/05/06 11:43:01;;;;;;;8.00;5.50;;;18.50;99.90;;;;;;5041721;28;20128;-64
2022/05/06 11:48:13;;;;;;;8.00;5.50;;;18.90;99.90;;;;;;5036200;28;20410;-64
2022/05/06 11:50:42;;;;;;;12.10;5.57;;;;;;;;;;5033107;28;20501;-64
2022/05/06 11:53:11;;;;;;;8.20;4.93;;;;;;;;;;5033133;28;20054;-64
2022/05/06 11:55:38;;;;;;;9.02;5.43;;;19.40;99.90;;;;;;5032930;28;20045;-63
2022/05/06 11:58:05;;;;;;;8.80;6.15;;;19.50;99.90;;;;;;5033605;28;20378;-64
2022/05/06 12:00:32;;;;;;;8.27;4.70;;;19.70;99.90;;;;;;5050644;28;20493;-64
2022/05/06 12:03:04;;;;;;;7.40;4.57;;;19.70;99.90;;;;;;5036029;28;20049;-64
2022/05/06 12:05:32;;;;;;;6.15;3.72;;;;;;;;;;5036271;28;20045;-64
2022/05/06 12:07:58;;;;;;;7.50;4.00;;;19.90;99.90;;;;;;5052771;28;20119;-64
2022/05/06 12:10:26;;;;;;;6.85;3.95;;;;;;;;;;5053366;28;20129;-64
2022/05/06 12:12:56;;;;;;;8.02;4.50;;;;;;;;;;5053042;28;20049;-62
2022/05/06 12:15:33;;;;;;;8.30;4.28;;;;;;;;;;5052749;28;20047;-65
2022/05/06 12:18:04;;;;;;;10.77;4.13;;;;;;;;;;5053055;28;20053;-64
2022/05/06 12:20:31;;;;;;;7.15;5.75;;;;;;;;;;5052849;28;20127;-65
2022/05/06 12:22:59;;;;;;;10.32;6.72;;;;;;;;;;5053024;28;20111;-60
2022/05/06 12:25:26;;;;;;;11.00;6.15;;;;;;;;;;5052851;28;20036;-62
2022/05/06 12:28:15;;;;;;;10.70;6.55;;;;;;;;;;5035203;28;20084;-62
2022/05/06 12:30:42;;;;;;;11.90;6.88;;;;;;;;;;5052243;28;20049;-62
2022/05/06 12:33:08;;;;;;;11.77;7.22;;;;;;;;;;5051647;28;20116;-61
2022/05/06 12:35:53;;;;;;;10.15;7.30;;;;;;;;;;5051121;28;20581;-62
2022/05/06 12:38:19;;;;;;;12.68;8.18;;;;;;;;;;5051290;28;20052;-64
2022/05/06 12:40:46;;;;;;;11.68;8.18;;;;;;;;;;5046163;28;20033;-64
2022/05/06 12:43:12;;;;;;;10.02;8.30;;;;;;;;;;5049436;28;20114;-64
2022/05/06 12:45:50;;;;;;;11.25;7.93;;;;;;;;;;5049365;28;20084;-64
2022/05/06 12:51:05;;;;;;;10.50;7.47;;;;;;;;;;5048194;28;20044;-64
2022/05/06 12:53:33;;;;;;;10.77;7.80;;;;;;;;;;5050216;28;20509;-65
2022/05/06 12:55:59;;;;;;;13.07;7.82;;;;;;;;;;5050852;28;20099;-65
2022/05/06 12:58:27;;;;;;;10.50;7.13;;;;;;;;;;5048199;28;20049;-65
2022/05/06 13:01:00;;;;;;;9.75;7.35;;;;;;;;;;5048002;28;20049;-64
2022/05/06 13:03:26;;;;;;;12.18;7.40;;;21.00;99.90;;;;;;5049959;28;20132;-64
2022/05/06 13:05:53;;;;;;;10.63;7.22;;;21.50;99.90;;;;;;5049956;28;20094;-64
2022/05/06 13:08:20;;;;;;;9.23;6.25;;;20.50;98.20;;;;;;5049380;28;20559;-63
2022/05/06 13:10:45;;;;;;;13.48;7.65;;;20.30;98.90;;;;;;5048295;28;20132;-63
2022/05/06 13:13:11;;;;;;;12.00;8.30;;;20.40;99.00;;;;;;5048827;28;20110;-63
2022/05/06 13:15:37;;;;;;;13.35;6.72;;;20.10;99.60;;;;;;5048722;28;20502;-63
2022/05/06 13:18:03;;;;;;;10.48;7.32;;;20.00;99.20;;;;;;5048739;28;20136;-63
2022/05/06 13:20:29;;;;;;;11.13;7.70;;;20.00;99.90;;;;;;5049230;28;20037;-63
2022/05/06 13:22:54;;;;;;;8.93;6.10;;;20.10;99.90;;;;;;5049726;28;20075;-63
2022/05/06 13:25:22;;;;;;;11.00;6.70;;;19.90;99.90;;;;;;5043895;28;20047;-63
2022/05/06 13:27:48;;;;;;;11.60;9.45;;;19.80;99.90;;;;;;5051657;28;20048;-63
2022/05/06 13:30:14;;;;;;;13.48;8.48;;;20.20;99.90;;;;;;5063053;28;20072;-63
2022/05/06 13:32:40;;;;;;;10.55;8.38;;;20.10;99.90;;;;;;5044408;28;20505;-63
2022/05/06 13:35:08;;;;;;;13.95;8.48;;;20.40;99.90;;;;;;5051605;28;20036;-63
2022/05/06 13:37:34;;;;;;;9.90;7.65;;;20.00;99.90;;;;;;5052419;28;20170;-63
2022/05/06 13:40:00;;;;;;;10.80;8.88;;;19.90;99.90;;;;;;5049455;28;20071;-63